createdAt,value
2023-05-09T00:01:21.095Z,4.13
2023-05-09T00:03:47.941Z,4.22
2023-05-09T00:06:15.574Z,4.22
2023-05-09T00:08:42.329Z,3.58
2023-05-09T00:11:09.063Z,4.38
2023-05-09T00:13:35.890Z,4.47
2023-05-09T00:16:03.644Z,4.15
2023-05-09T00:18:31.375Z,4.13
2023-05-09T00:20:58.106Z,3.63
2023-05-09T00:23:24.798Z,3.85
2023-05-09T00:25:51.520Z,3.92
2023-05-09T00:28:18.157Z,3.80
2023-05-09T00:30:44.914Z,3.83
2023-05-09T00:33:11.913Z,4.00
2023-05-09T00:35:38.720Z,4.63
2023-05-09T00:38:05.359Z,3.78
2023-05-09T00:40:32.015Z,3.95
2023-05-09T00:43:01.365Z,4.18
2023-05-09T00:45:28.011Z,3.50
2023-05-09T00:47:55.539Z,4.07
2023-05-09T00:50:22.275Z,3.70
2023-05-09T00:52:49.062Z,4.63
2023-05-09T00:55:16.528Z,4.20
2023-05-09T00:57:43.594Z,5.00
2023-05-09T01:00:14.135Z,4.20
2023-05-09T01:02:43.218Z,4.43
2023-05-09T01:05:11.118Z,4.90
2023-05-09T01:07:53.555Z,4.20
2023-05-09T01:10:38.159Z,4.05
2023-05-09T01:13:06.572Z,4.20
2023-05-09T01:16:01.507Z,4.32
2023-05-09T01:19:25.946Z,3.80
2023-05-09T01:21:54.718Z,4.28
2023-05-09T01:24:58.500Z,4.15
2023-05-09T01:27:49.720Z,4.30
2023-05-09T01:30:17.361Z,4.78
2023-05-09T01:32:47.749Z,4.22
2023-05-09T01:35:16.358Z,4.03
2023-05-09T01:37:44.880Z,4.15
2023-05-09T01:40:16.730Z,4.30
2023-05-09T01:42:55.073Z,4.97
2023-05-09T01:45:23.793Z,4.38
2023-05-09T01:47:50.892Z,4.20
2023-05-09T01:50:19.694Z,4.30
2023-05-09T01:52:48.941Z,4.43
2023-05-09T01:55:19.962Z,4.43
2023-05-09T01:57:47.332Z,4.97
2023-05-09T02:00:15.184Z,4.82
2023-05-09T02:02:43.351Z,4.10
2023-05-09T02:05:12.046Z,4.07
2023-05-09T02:07:41.844Z,3.47
2023-05-09T02:10:10.287Z,4.35
2023-05-09T02:12:36.979Z,4.25
2023-05-09T02:15:05.150Z,4.63
2023-05-09T02:17:32.318Z,5.07
2023-05-09T02:19:58.964Z,4.40
2023-05-09T02:22:26.132Z,3.85
2023-05-09T02:24:52.918Z,3.90
2023-05-09T02:27:20.677Z,4.18
2023-05-09T02:29:55.924Z,4.30
2023-05-09T02:32:26.598Z,4.70
2023-05-09T02:34:54.626Z,5.05
2023-05-09T02:37:22.253Z,4.90
2023-05-09T02:39:49.008Z,5.03
2023-05-09T02:42:25.118Z,5.47
2023-05-09T02:44:52.955Z,5.45
2023-05-09T02:47:20.464Z,4.95
2023-05-09T02:49:47.971Z,5.13
2023-05-09T02:52:14.624Z,4.28
2023-05-09T02:54:41.286Z,5.22
2023-05-09T02:57:07.899Z,4.53
2023-05-09T02:59:34.647Z,4.88
2023-05-09T03:02:01.684Z,5.10
2023-05-09T03:04:28.324Z,4.53
2023-05-09T03:06:55.204Z,4.60
2023-05-09T03:09:21.784Z,4.70
2023-05-09T03:11:48.427Z,5.90
2023-05-09T03:14:15.507Z,5.53
2023-05-09T03:16:42.150Z,5.40
2023-05-09T03:19:08.846Z,5.40
2023-05-09T03:21:35.538Z,4.85
2023-05-09T03:24:02.189Z,4.53
2023-05-09T03:26:28.862Z,4.93
2023-05-09T03:28:55.620Z,5.32
2023-05-09T03:31:22.330Z,5.20
2023-05-09T03:33:49.031Z,5.07
2023-05-09T03:36:15.740Z,5.15
2023-05-09T03:38:42.500Z,5.53
2023-05-09T03:41:09.743Z,6.80
2023-05-09T03:43:36.446Z,5.38
2023-05-09T03:46:03.022Z,5.38
2023-05-09T03:48:29.684Z,5.65
2023-05-09T03:50:56.460Z,5.75
2023-05-09T03:53:23.411Z,5.57
2023-05-09T03:55:50.011Z,5.97
2023-05-09T03:58:19.298Z,5.20
2023-05-09T04:00:46.232Z,5.72
2023-05-09T04:03:12.976Z,5.55
2023-05-09T04:05:40.932Z,6.03
2023-05-09T04:08:07.976Z,6.05
2023-05-09T04:10:34.623Z,5.72
2023-05-09T04:13:01.353Z,5.80
2023-05-09T04:15:28.100Z,5.80
2023-05-09T04:17:54.902Z,6.15
2023-05-09T04:20:21.610Z,5.95
2023-05-09T04:22:48.288Z,6.78
2023-05-09T04:25:16.084Z,6.07
2023-05-09T04:27:43.044Z,5.60
2023-05-09T04:30:11.210Z,7.38
2023-05-09T04:32:39.003Z,6.72
2023-05-09T04:35:08.225Z,6.07
2023-05-09T04:37:34.986Z,6.25
2023-05-09T04:40:01.580Z,5.90
2023-05-09T04:42:28.212Z,6.57
2023-05-09T04:44:54.891Z,6.95
2023-05-09T04:47:21.566Z,6.35
2023-05-09T04:49:48.215Z,6.30
2023-05-09T04:52:14.875Z,5.97
2023-05-09T04:54:41.494Z,6.88
2023-05-09T04:57:17.408Z,6.20
2023-05-09T04:59:45.819Z,6.38
2023-05-09T05:02:13.076Z,5.68
2023-05-09T05:04:39.979Z,5.90
2023-05-09T05:07:06.582Z,5.47
2023-05-09T05:09:33.354Z,5.53
2023-05-09T05:12:02.656Z,5.75
2023-05-09T05:14:31.021Z,5.35
2023-05-09T05:16:57.626Z,6.22
2023-05-09T05:19:24.271Z,6.38
2023-05-09T05:21:50.877Z,5.60
2023-05-09T05:24:17.494Z,5.75
2023-05-09T05:26:44.176Z,6.00
2023-05-09T05:29:10.900Z,6.45
2023-05-09T05:31:37.720Z,6.45
2023-05-09T05:34:04.343Z,7.03
2023-05-09T05:36:32.184Z,6.93
2023-05-09T05:38:58.846Z,7.03
2023-05-09T05:41:26.328Z,6.43
2023-05-09T05:43:54.349Z,5.97
2023-05-09T05:46:21.473Z,6.07
2023-05-09T05:48:48.193Z,6.35
2023-05-09T05:51:14.908Z,6.75
2023-05-09T05:53:41.656Z,6.95
2023-05-09T05:56:08.323Z,6.00
2023-05-09T05:58:35.071Z,6.80
2023-05-09T06:01:02.430Z,5.90
2023-05-09T06:03:29.168Z,6.68
2023-05-09T06:05:56.568Z,7.28
2023-05-09T06:08:23.507Z,6.63
2023-05-09T06:10:50.112Z,6.93
2023-05-09T06:13:16.827Z,7.00
2023-05-09T06:15:43.597Z,6.75
2023-05-09T06:18:10.470Z,6.20
2023-05-09T06:20:37.211Z,6.38
2023-05-09T06:23:04.105Z,6.80
2023-05-09T06:25:30.881Z,5.72
2023-05-09T06:27:57.497Z,6.70
2023-05-09T06:30:26.630Z,6.13
2023-05-09T06:32:54.602Z,5.70
2023-05-09T06:35:21.586Z,6.07
2023-05-09T06:37:49.162Z,5.55
2023-05-09T06:40:16.763Z,5.47
2023-05-09T06:42:43.584Z,5.53
2023-05-09T06:45:10.741Z,5.70
2023-05-09T06:47:37.470Z,5.57
2023-05-09T06:50:04.351Z,5.30
2023-05-09T06:52:30.954Z,5.63
2023-05-09T06:54:57.546Z,5.68
2023-05-09T06:57:24.241Z,5.28
2023-05-09T06:59:50.928Z,5.18
2023-05-09T07:02:17.564Z,5.18
2023-05-09T07:04:44.279Z,4.75
2023-05-09T07:07:10.965Z,4.72
2023-05-09T07:09:37.697Z,4.68
2023-05-09T07:12:04.673Z,5.32
2023-05-09T07:14:31.352Z,4.95
2023-05-09T07:17:09.858Z,4.75
2023-05-09T07:19:44.683Z,5.15
2023-05-09T07:22:11.319Z,4.70
2023-05-09T07:24:37.965Z,5.35
2023-05-09T07:27:04.673Z,4.50
2023-05-09T07:29:31.544Z,4.90
2023-05-09T07:31:58.232Z,4.63
2023-05-09T07:34:25.632Z,5.68
2023-05-09T07:36:52.346Z,6.15
2023-05-09T07:39:19.073Z,5.93
2023-05-09T07:41:47.878Z,5.93
2023-05-09T07:44:16.011Z,5.50
2023-05-09T07:46:42.923Z,6.47
2023-05-09T07:49:09.798Z,5.57
2023-05-09T07:51:36.746Z,5.38
2023-05-09T07:54:03.751Z,5.53
2023-05-09T07:56:30.841Z,5.60
2023-05-09T07:58:57.480Z,6.15
2023-05-09T08:01:24.123Z,5.40
2023-05-09T08:03:50.927Z,5.90
2023-05-09T08:06:17.776Z,5.55
2023-05-09T08:08:44.381Z,5.38
2023-05-09T08:11:11.055Z,5.90
2023-05-09T08:13:37.737Z,5.47
2023-05-09T08:16:04.727Z,5.40
2023-05-09T08:18:31.424Z,5.93
2023-05-09T08:20:59.727Z,5.20
2023-05-09T08:23:26.825Z,5.60
2023-05-09T08:25:56.794Z,4.97
2023-05-09T08:28:24.500Z,5.30
2023-05-09T08:30:52.171Z,5.22
2023-05-09T08:33:19.242Z,5.10
2023-05-09T08:35:50.345Z,4.28
2023-05-09T08:38:16.981Z,5.13
2023-05-09T08:40:43.819Z,5.45
2023-05-09T08:43:12.262Z,5.28
2023-05-09T08:45:49.724Z,4.50
2023-05-09T08:48:17.299Z,4.72
2023-05-09T08:50:44.917Z,4.90
2023-05-09T08:53:12.690Z,4.70
2023-05-09T08:55:39.901Z,4.45
2023-05-09T08:58:07.558Z,4.90
2023-05-09T09:00:38.294Z,5.00
2023-05-09T09:03:07.755Z,5.60
2023-05-09T09:08:19.234Z,4.72
2023-05-09T09:10:49.759Z,4.53
2023-05-09T09:13:18.055Z,4.43
2023-05-09T09:15:47.234Z,4.13
2023-05-09T09:18:23.333Z,4.00
2023-05-09T09:21:07.290Z,4.30
2023-05-09T09:23:34.630Z,4.13
2023-05-09T09:26:03.113Z,3.70
2023-05-09T09:28:29.868Z,3.83
2023-05-09T09:30:56.698Z,3.95
2023-05-09T09:33:25.571Z,3.40
2023-05-09T09:35:55.026Z,3.30
2023-05-09T09:38:23.079Z,4.20
2023-05-09T09:40:59.182Z,3.70
2023-05-09T09:43:30.469Z,3.65
2023-05-09T09:45:58.426Z,3.67
2023-05-09T09:48:32.250Z,3.58
2023-05-09T09:51:04.926Z,4.05
2023-05-09T09:53:39.631Z,3.17
2023-05-09T09:56:06.610Z,3.58
2023-05-09T09:58:33.274Z,3.88
2023-05-09T10:01:07.379Z,3.60
2023-05-09T10:03:43.568Z,3.85
2023-05-09T10:06:12.047Z,3.72
2023-05-09T10:08:39.529Z,3.50
2023-05-09T10:11:06.364Z,3.50
2023-05-09T10:13:36.379Z,3.45
2023-05-09T10:18:32.094Z,3.80
2023-05-09T10:21:03.954Z,3.75
2023-05-09T10:23:32.849Z,3.80
2023-05-09T10:26:11.472Z,3.70
2023-05-09T10:28:41.196Z,3.67
2023-05-09T10:31:15.886Z,3.80
2023-05-09T10:33:48.225Z,3.42
2023-05-09T10:36:18.185Z,3.47
2023-05-09T10:38:45.266Z,2.60
2023-05-09T10:41:12.346Z,3.20
2023-05-09T10:43:39.594Z,3.63
2023-05-09T10:46:06.948Z,3.25
2023-05-09T10:48:34.039Z,3.25
2023-05-09T10:51:02.488Z,3.67
2023-05-09T10:53:42.204Z,3.53
2023-05-09T10:56:08.991Z,3.30
2023-05-09T10:58:40.938Z,3.33
2023-05-09T11:01:07.989Z,2.90
2023-05-09T11:03:54.873Z,3.40
2023-05-09T11:06:45.235Z,2.60
2023-05-09T11:09:34.528Z,2.92
2023-05-09T11:12:07.405Z,2.95
2023-05-09T11:14:48.695Z,3.08
2023-05-09T11:17:30.653Z,2.55
2023-05-09T11:19:59.807Z,2.78
2023-05-09T11:22:32.706Z,2.42
2023-05-09T11:25:10.590Z,2.70
2023-05-09T11:27:43.658Z,2.53
2023-05-09T11:30:14.289Z,2.42
2023-05-09T11:32:45.307Z,2.60
2023-05-09T11:35:17.719Z,2.75
2023-05-09T11:37:55.147Z,2.70
2023-05-09T11:40:23.033Z,2.75
2023-05-09T11:42:58.092Z,2.33
2023-05-09T11:45:33.121Z,2.75
2023-05-09T11:48:04.218Z,2.67
2023-05-09T11:50:30.920Z,2.92
2023-05-09T11:52:57.592Z,2.40
2023-05-09T11:55:25.795Z,2.63
2023-05-09T11:57:54.224Z,2.67
2023-05-09T12:00:22.857Z,2.30
2023-05-09T12:02:51.166Z,2.42
2023-05-09T12:05:19.651Z,2.22
2023-05-09T12:07:47.654Z,1.90
2023-05-09T12:10:19.597Z,2.22
2023-05-09T12:12:48.623Z,2.40
2023-05-09T12:17:47.243Z,2.50
2023-05-09T12:20:16.006Z,2.30
2023-05-09T12:22:44.160Z,2.28
2023-05-09T12:25:12.235Z,2.63
2023-05-09T12:27:41.293Z,2.57
2023-05-09T12:30:10.615Z,2.50
2023-05-09T12:32:39.597Z,2.20
2023-05-09T12:35:14.380Z,2.38
2023-05-09T12:37:55.306Z,2.42
2023-05-09T12:40:22.020Z,2.60
2023-05-09T12:42:48.640Z,2.28
2023-05-09T12:45:15.766Z,2.20
2023-05-09T12:47:42.718Z,2.45
2023-05-09T12:50:12.433Z,2.90
2023-05-09T12:53:01.462Z,2.20
2023-05-09T12:55:29.250Z,2.00
2023-05-09T12:58:02.011Z,2.20
2023-05-09T13:00:29.391Z,1.95
2023-05-09T13:02:56.238Z,2.30
2023-05-09T13:05:23.663Z,2.50
2023-05-09T13:07:54.731Z,2.63
2023-05-09T13:10:27.580Z,2.42
2023-05-09T13:12:54.689Z,2.25
2023-05-09T13:15:23.350Z,2.35
2023-05-09T13:17:51.661Z,2.28
2023-05-09T13:20:19.496Z,2.13
2023-05-09T13:22:46.744Z,2.40
2023-05-09T13:25:13.613Z,2.30
2023-05-09T13:27:40.230Z,2.10
2023-05-09T13:30:07.906Z,2.45
2023-05-09T13:32:36.694Z,2.25
2023-05-09T13:35:06.772Z,2.35
2023-05-09T13:37:34.440Z,2.20
2023-05-09T13:40:01.100Z,2.10
2023-05-09T13:42:28.188Z,1.92
2023-05-09T13:44:54.824Z,2.47
2023-05-09T13:47:21.796Z,2.17
2023-05-09T13:49:48.544Z,2.40
2023-05-09T13:52:16.346Z,2.10
2023-05-09T13:54:43.177Z,2.42
2023-05-09T13:57:09.983Z,2.50
2023-05-09T13:59:36.971Z,2.10
2023-05-09T14:02:03.896Z,2.10
2023-05-09T14:04:34.212Z,2.35
2023-05-09T14:07:01.677Z,2.40
2023-05-09T14:09:29.562Z,2.35
2023-05-09T14:11:57.109Z,2.70
2023-05-09T14:14:25.590Z,2.33
2023-05-09T14:16:52.807Z,2.13
2023-05-09T14:19:19.815Z,2.50
2023-05-09T14:21:49.559Z,2.10
2023-05-09T14:24:16.580Z,2.30
2023-05-09T14:26:43.821Z,2.85
2023-05-09T14:29:11.092Z,2.22
2023-05-09T14:31:37.987Z,2.20
2023-05-09T14:34:05.396Z,2.50
2023-05-09T14:36:35.275Z,2.50
2023-05-09T14:39:02.395Z,2.70
2023-05-09T14:41:29.024Z,2.40
2023-05-09T14:43:55.728Z,2.20
2023-05-09T14:46:24.828Z,2.10
2023-05-09T14:51:21.228Z,2.40
2023-05-09T14:53:47.864Z,2.35
2023-05-09T14:56:14.708Z,2.20
2023-05-09T14:58:41.321Z,2.40
2023-05-09T15:01:08.013Z,2.38
2023-05-09T15:03:34.733Z,2.58
2023-05-09T15:06:01.561Z,2.55
2023-05-09T15:08:28.393Z,2.42
2023-05-09T15:10:55.046Z,2.22
2023-05-09T15:13:21.965Z,2.08
2023-05-09T15:15:49.428Z,2.03
2023-05-09T15:18:18.365Z,2.10
2023-05-09T15:20:45.022Z,2.05
2023-05-09T15:23:13.273Z,2.08
2023-05-09T15:25:43.395Z,2.20
2023-05-09T15:28:10.050Z,2.28
2023-05-09T15:30:38.886Z,2.65
2023-05-09T15:33:05.800Z,2.03
2023-05-09T15:35:32.479Z,2.20
2023-05-09T15:37:59.636Z,1.88
2023-05-09T15:40:26.537Z,2.03
2023-05-09T15:42:53.206Z,1.73
2023-05-09T15:45:19.783Z,1.92
2023-05-09T15:47:46.524Z,2.00
2023-05-09T15:50:13.368Z,1.90
2023-05-09T15:52:40.349Z,2.00
2023-05-09T15:55:08.680Z,1.83
2023-05-09T15:57:35.455Z,1.80
2023-05-09T16:00:02.226Z,1.90
2023-05-09T16:02:29.085Z,1.83
2023-05-09T16:04:55.878Z,1.60
2023-05-09T16:07:22.788Z,1.50
2023-05-09T16:09:51.100Z,1.53
2023-05-09T16:12:17.786Z,1.58
2023-05-09T16:14:44.420Z,1.40
2023-05-09T16:17:11.515Z,1.80
2023-05-09T16:19:38.329Z,1.98
2023-05-09T16:22:05.009Z,2.15
2023-05-09T16:24:31.944Z,1.70
2023-05-09T16:26:58.865Z,2.30
2023-05-09T16:29:27.381Z,1.80
2023-05-09T16:31:54.144Z,1.60
2023-05-09T16:34:21.052Z,1.70
2023-05-09T16:36:47.985Z,1.70
2023-05-09T16:39:15.284Z,1.80
2023-05-09T16:41:42.089Z,1.60
2023-05-09T16:44:09.005Z,1.40
2023-05-09T16:46:35.893Z,1.63
2023-05-09T16:49:02.586Z,1.90
2023-05-09T16:51:29.268Z,2.90
2023-05-09T16:53:55.932Z,1.55
2023-05-09T16:56:22.722Z,1.40
2023-05-09T16:58:49.453Z,1.48
2023-05-09T17:01:16.190Z,1.70
2023-05-09T17:03:42.926Z,1.60
2023-05-09T17:06:10.396Z,1.65
2023-05-09T17:08:37.057Z,2.53
2023-05-09T17:11:05.386Z,1.60
2023-05-09T17:13:32.013Z,1.57
2023-05-09T17:15:58.728Z,1.45
2023-05-09T17:18:35.977Z,1.67
2023-05-09T17:21:04.453Z,1.52
2023-05-09T17:23:31.826Z,1.60
2023-05-09T17:25:58.584Z,1.52
2023-05-09T17:28:25.387Z,1.70
2023-05-09T17:30:52.245Z,1.60
2023-05-09T17:33:19.365Z,1.48
2023-05-09T17:35:49.429Z,1.40
2023-05-09T17:38:16.135Z,1.45
2023-05-09T17:40:43.450Z,1.50
2023-05-09T17:43:10.629Z,1.60
2023-05-09T17:45:38.112Z,1.70
2023-05-09T17:48:07.031Z,1.80
2023-05-09T17:50:33.754Z,1.60
2023-05-09T17:53:00.631Z,1.55
2023-05-09T17:55:27.330Z,1.40
2023-05-09T17:57:53.956Z,1.52
2023-05-09T18:00:20.690Z,1.85
2023-05-09T18:02:48.236Z,1.60
2023-05-09T18:05:14.952Z,1.40
2023-05-09T18:07:41.672Z,1.40
2023-05-09T18:10:09.331Z,1.80
2023-05-09T18:12:37.297Z,1.80
2023-05-09T18:15:10.702Z,1.50
2023-05-09T18:17:37.879Z,1.38
2023-05-09T18:20:06.576Z,1.48
2023-05-09T18:22:33.423Z,1.55
2023-05-09T18:25:01.080Z,1.63
2023-05-09T18:27:28.175Z,1.65
2023-05-09T18:29:54.743Z,1.60
2023-05-09T18:32:21.933Z,2.30
2023-05-09T18:34:48.615Z,2.10
2023-05-09T18:37:16.948Z,2.00
2023-05-09T18:39:43.840Z,1.88
2023-05-09T18:42:10.953Z,2.28
2023-05-09T18:44:37.627Z,2.83
2023-05-09T18:47:04.431Z,4.00
2023-05-09T18:49:31.241Z,2.58
2023-05-09T18:52:00.080Z,2.42
2023-05-09T18:54:26.873Z,2.90
2023-05-09T18:56:53.746Z,1.70
2023-05-09T18:59:20.473Z,2.13
2023-05-09T19:01:47.192Z,1.90
2023-05-09T19:04:14.980Z,2.08
2023-05-09T19:06:42.475Z,2.20
2023-05-09T19:09:09.158Z,2.30
2023-05-09T19:11:35.973Z,1.98
2023-05-09T19:14:02.732Z,2.08
2023-05-09T19:16:29.644Z,2.45
2023-05-09T19:18:57.229Z,2.45
2023-05-09T19:21:24.455Z,2.28
2023-05-09T19:23:51.404Z,2.10
2023-05-09T19:26:18.972Z,2.00
2023-05-09T19:28:48.570Z,1.90
2023-05-09T19:31:15.859Z,1.90
2023-05-09T19:33:45.659Z,1.50
2023-05-09T19:36:12.845Z,1.98
2023-05-09T19:38:39.630Z,2.20
2023-05-09T19:41:06.321Z,2.33
2023-05-09T19:43:32.979Z,2.20
2023-05-09T19:46:00.245Z,2.30
2023-05-09T19:48:26.985Z,2.95
2023-05-09T19:50:57.788Z,2.67
2023-05-09T19:53:25.058Z,2.90
2023-05-09T19:55:51.970Z,2.60
2023-05-09T19:58:18.775Z,2.35
2023-05-09T20:00:46.040Z,2.97
2023-05-09T20:03:12.944Z,2.45
2023-05-09T20:05:39.691Z,2.20
2023-05-09T20:08:06.446Z,2.28
2023-05-09T20:10:33.215Z,2.25
2023-05-09T20:13:01.018Z,2.30
2023-05-09T20:15:27.967Z,2.15
2023-05-09T20:17:54.810Z,2.55
2023-05-09T20:20:21.661Z,2.42
2023-05-09T20:22:48.293Z,2.30
2023-05-09T20:25:15.414Z,2.15
2023-05-09T20:27:42.160Z,2.60
2023-05-09T20:30:09.307Z,2.10
2023-05-09T20:32:36.002Z,2.08
2023-05-09T20:35:03.006Z,1.98
2023-05-09T20:37:29.771Z,2.30
2023-05-09T20:39:56.620Z,2.47
2023-05-09T20:42:23.667Z,2.03
2023-05-09T20:44:51.575Z,2.45
2023-05-09T20:47:18.490Z,2.25
2023-05-09T20:49:45.149Z,2.40
2023-05-09T20:52:11.934Z,2.55
2023-05-09T20:54:38.674Z,2.20
2023-05-09T20:57:05.272Z,2.55
2023-05-09T20:59:32.039Z,2.42
2023-05-09T21:01:58.796Z,2.35
2023-05-09T21:04:25.707Z,2.50
2023-05-09T21:06:52.407Z,2.60
2023-05-09T21:09:19.082Z,2.25
2023-05-09T21:11:46.165Z,2.65
2023-05-09T21:14:12.856Z,2.10
2023-05-09T21:16:39.831Z,2.53
2023-05-09T21:19:06.922Z,2.55
2023-05-09T21:21:33.710Z,2.72
2023-05-09T21:24:09.026Z,2.63
2023-05-09T21:26:36.476Z,3.90
2023-05-09T21:29:03.122Z,4.22
2023-05-09T21:31:29.856Z,3.00
2023-05-09T21:33:56.564Z,2.97
2023-05-09T21:36:23.199Z,2.28
2023-05-09T21:38:49.943Z,2.53
2023-05-09T21:41:16.981Z,2.08
2023-05-09T21:43:43.675Z,2.42
2023-05-09T21:46:10.606Z,2.33
2023-05-09T21:48:37.354Z,2.25
2023-05-09T21:51:04.602Z,2.60
2023-05-09T21:53:31.412Z,2.45
2023-05-09T21:55:57.998Z,2.30
2023-05-09T21:58:24.711Z,2.03
2023-05-09T22:00:51.452Z,2.17
2023-05-09T22:03:18.151Z,2.47
2023-05-09T22:05:45.281Z,2.53
2023-05-09T22:08:12.337Z,2.60
2023-05-09T22:10:39.128Z,2.40
2023-05-09T22:13:06.018Z,2.47
2023-05-09T22:15:32.916Z,2.00
2023-05-09T22:17:59.595Z,2.58
2023-05-09T22:20:26.415Z,2.40
2023-05-09T22:22:53.112Z,2.70
2023-05-09T22:25:19.788Z,2.40
2023-05-09T22:27:46.626Z,2.33
2023-05-09T22:30:13.621Z,2.40
2023-05-09T22:32:40.715Z,2.60
2023-05-09T22:35:07.890Z,2.60
2023-05-09T22:37:34.548Z,2.63
2023-05-09T22:40:01.578Z,2.75
2023-05-09T22:42:29.446Z,2.97
2023-05-09T22:44:56.172Z,3.05
2023-05-09T22:47:23.078Z,2.70
2023-05-09T22:49:50.531Z,3.03
2023-05-09T22:52:17.303Z,2.83
2023-05-09T22:54:44.295Z,2.53
2023-05-09T22:57:11.744Z,2.42
2023-05-09T22:59:38.631Z,2.35
2023-05-09T23:02:05.957Z,2.42
2023-05-09T23:04:32.699Z,2.78
2023-05-09T23:06:59.289Z,2.70
2023-05-09T23:09:26.346Z,4.05
2023-05-09T23:11:52.984Z,3.55
2023-05-09T23:14:19.846Z,2.90
2023-05-09T23:16:46.685Z,3.10
2023-05-09T23:19:13.374Z,2.92
2023-05-09T23:21:40.045Z,3.22
2023-05-09T23:24:06.906Z,2.72
2023-05-09T23:26:40.175Z,2.88
2023-05-09T23:29:06.918Z,3.47
2023-05-09T23:31:33.610Z,3.40
2023-05-09T23:34:00.295Z,3.38
2023-05-09T23:36:26.996Z,3.00
2023-05-09T23:38:53.708Z,2.95
2023-05-09T23:41:22.010Z,2.95
2023-05-09T23:43:48.664Z,2.80
2023-05-09T23:46:16.068Z,2.83
2023-05-09T23:48:42.771Z,2.90
2023-05-09T23:51:09.498Z,3.30
2023-05-09T23:53:36.152Z,3.10
2023-05-09T23:56:03.009Z,3.05
2023-05-09T23:58:29.735Z,3.15
